Time;durP1;ratioP1;P1;durP2;ratioP2;P2;SDS_P1;SDS_P2;PMS_P1;PMS_P2;Temp;Humidity;BMP_temperature;BMP_pressure;BME280_temperature;BME280_humidity;BME280_pressure;Samples;Min_cycle;Max_cycle;Signal;HPM_P1;HPM_P2
2022/11/01 00:02:01;;;;;;;18.70;10.55;;;13.40;99.90;;;;;;4973476;28;20039;-76
2022/11/01 00:04:33;;;;;;;17.88;11.10;;;13.40;99.90;;;;;;4981105;28;20133;-78
2022/11/01 00:06:58;;;;;;;17.20;10.02;;;13.50;99.90;;;;;;4947680;28;20249;-79
2022/11/01 00:09:24;;;;;;;21.65;11.77;;;13.50;99.90;;;;;;4945198;29;20073;-78
2022/11/01 00:11:50;;;;;;;19.55;11.45;;;13.60;99.90;;;;;;4963844;28;20083;-78
2022/11/01 00:14:18;;;;;;;16.30;10.95;;;13.60;99.90;;;;;;4933512;29;20435;-78
2022/11/01 00:16:44;;;;;;;18.65;10.45;;;13.40;99.90;;;;;;4958444;28;20306;-77
2022/11/01 00:19:10;;;;;;;16.10;10.65;;;13.40;99.90;;;;;;4960804;29;20059;-77
2022/11/01 00:21:36;;;;;;;15.52;10.32;;;13.40;99.90;;;;;;4960487;29;20035;-78
2022/11/01 00:24:02;;;;;;;13.40;9.35;;;13.50;99.90;;;;;;4928670;29;20059;-80
2022/11/01 00:26:28;;;;;;;16.10;10.18;;;13.40;99.90;;;;;;4948403;28;20046;-79
2022/11/01 00:28:53;;;;;;;15.70;10.77;;;13.50;99.90;;;;;;4933875;28;20086;-78
2022/11/01 00:31:21;;;;;;;17.75;10.65;;;13.50;99.90;;;;;;4931342;29;20055;-80
2022/11/01 00:33:47;;;;;;;14.85;8.60;;;13.50;99.90;;;;;;4950073;28;20593;-78
2022/11/01 00:36:13;;;;;;;16.85;10.10;;;13.50;99.90;;;;;;4952812;28;20110;-78
2022/11/01 00:38:39;;;;;;;125.30;77.50;;;13.50;99.90;;;;;;4949820;28;20035;-80
2022/11/01 00:41:05;;;;;;;24.30;21.83;;;13.60;99.90;;;;;;4932801;28;20073;-79
2022/11/01 00:43:32;;;;;;;14.50;10.00;;;13.50;99.90;;;;;;4966499;28;20039;-78
2022/11/01 00:45:59;;;;;;;23.30;11.20;;;13.60;99.90;;;;;;4966667;28;20321;-79
2022/11/01 00:48:25;;;;;;;14.55;10.20;;;13.70;99.90;;;;;;4972630;28;20042;-79
2022/11/01 00:50:51;;;;;;;15.48;8.57;;;13.80;99.90;;;;;;4949270;28;20046;-77
2022/11/01 00:53:17;;;;;;;15.82;8.82;;;13.90;99.90;;;;;;4971757;28;20134;-80
2022/11/01 00:55:43;;;;;;;19.02;9.90;;;13.80;99.90;;;;;;4928137;28;20131;-79
2022/11/01 00:58:08;;;;;;;12.13;9.45;;;13.90;99.90;;;;;;4962154;28;20093;-77
2022/11/01 01:00:35;;;;;;;13.50;9.43;;;13.80;99.90;;;;;;4951249;28;20031;-77
2022/11/01 01:03:01;;;;;;;14.85;8.73;;;13.80;99.90;;;;;;4961687;28;20046;-79
2022/11/01 01:05:27;;;;;;;16.95;9.65;;;13.80;99.90;;;;;;4951083;28;20325;-78
2022/11/01 01:07:55;;;;;;;13.50;8.25;;;13.90;99.90;;;;;;4955779;28;20053;-79
2022/11/01 01:10:21;;;;;;;13.63;7.80;;;13.80;99.90;;;;;;4939299;28;20047;-77
2022/11/01 01:12:47;;;;;;;17.65;9.65;;;13.90;99.90;;;;;;4971044;28;20086;-76
2022/11/01 01:15:13;;;;;;;13.18;8.30;;;13.90;99.90;;;;;;4971604;28;20106;-79
2022/11/01 01:17:39;;;;;;;14.27;8.05;;;13.80;99.90;;;;;;4944376;28;20325;-80
2022/11/01 01:20:06;;;;;;;15.95;9.38;;;13.80;99.90;;;;;;4955877;28;20093;-80
2022/11/01 01:22:32;;;;;;;14.45;8.60;;;13.80;99.90;;;;;;4959676;28;20103;-77
2022/11/01 01:24:58;;;;;;;15.27;8.48;;;13.80;99.90;;;;;;4967854;28;20089;-76
2022/11/01 01:27:24;;;;;;;10.32;7.50;;;13.80;99.90;;;;;;4942151;28;20034;-77
2022/11/01 01:29:50;;;;;;;15.20;8.95;;;13.90;99.90;;;;;;4960015;28;20041;-77
2022/11/01 01:32:21;;;;;;;11.40;8.40;;;13.80;99.90;;;;;;4963251;28;20087;-76
2022/11/01 01:34:47;;;;;;;11.05;7.13;;;13.90;99.90;;;;;;4961564;28;20062;-77
2022/11/01 01:37:21;;;;;;;10.75;6.13;;;13.90;99.90;;;;;;4960631;28;20046;-77
2022/11/01 01:39:47;;;;;;;13.23;7.63;;;13.90;99.90;;;;;;4961493;28;20031;-77
2022/11/01 01:42:50;;;;;;;16.85;9.10;;;14.00;99.90;;;;;;4970827;28;20031;-76
2022/11/01 01:45:32;;;;;;;12.63;8.20;;;13.90;99.90;;;;;;4966981;28;20074;-80
2022/11/01 01:48:23;;;;;;;10.30;7.63;;;14.00;99.90;;;;;;4961179;28;20038;-78
2022/11/01 01:50:55;;;;;;;14.07;8.05;;;14.10;99.90;;;;;;4943327;28;20039;-80
2022/11/01 01:53:27;;;;;;;15.68;8.02;;;14.00;99.90;;;;;;4967789;28;20102;-80
2022/11/01 01:55:59;;;;;;;15.77;8.38;;;14.00;99.90;;;;;;4958614;28;20300;-80
2022/11/01 01:58:30;;;;;;;12.98;8.05;;;14.00;99.90;;;;;;4960118;28;20038;-80
2022/11/01 02:00:56;;;;;;;13.10;8.18;;;14.10;99.90;;;;;;4966252;28;20053;-78
2022/11/01 02:03:28;;;;;;;17.42;9.35;;;14.00;99.90;;;;;;4953761;28;20119;-76
2022/11/01 02:06:08;;;;;;;12.55;7.18;;;14.10;99.90;;;;;;4941281;29;20039;-77
2022/11/01 02:08:35;;;;;;;10.20;6.50;;;14.10;99.90;;;;;;4963000;28;20234;-79
2022/11/01 02:11:04;;;;;;;12.25;7.85;;;14.10;99.90;;;;;;4960408;28;20052;-76
2022/11/01 02:13:30;;;;;;;15.85;8.45;;;14.00;99.90;;;;;;4973685;28;20194;-78
2022/11/01 02:16:17;;;;;;;13.00;8.30;;;14.10;99.90;;;;;;4961515;28;20026;-76
2022/11/01 02:18:52;;;;;;;13.90;7.30;;;14.00;99.90;;;;;;4981883;28;20031;-79
2022/11/01 02:21:57;;;;;;;17.92;7.40;;;14.00;99.90;;;;;;4959022;28;20559;-76
2022/11/01 02:24:49;;;;;;;13.73;7.85;;;14.10;99.90;;;;;;4953711;28;20356;-79
2022/11/01 02:27:27;;;;;;;15.20;6.60;;;14.10;99.90;;;;;;4967200;28;20042;-76
2022/11/01 02:30:12;;;;;;;12.63;7.13;;;14.20;99.90;;;;;;4968266;28;20063;-77
2022/11/01 02:32:53;;;;;;;9.88;6.50;;;14.20;99.90;;;;;;4962563;28;20043;-77
2022/11/01 02:35:58;;;;;;;14.45;8.07;;;14.20;99.90;;;;;;4988095;28;20105;-80
2022/11/01 02:38:37;;;;;;;12.17;7.33;;;14.10;99.90;;;;;;4974186;28;20038;-76
2022/11/01 02:41:46;;;;;;;12.48;7.63;;;14.20;99.90;;;;;;4979005;28;20244;-79
2022/11/01 02:44:19;;;;;;;9.85;6.32;;;14.10;99.90;;;;;;4922055;29;20036;-78
2022/11/01 02:47:02;;;;;;;10.57;7.30;;;14.20;99.90;;;;;;4891233;29;20036;-78
2022/11/01 02:49:36;;;;;;;13.63;8.07;;;14.20;99.90;;;;;;4926953;28;20066;-77
2022/11/01 02:52:04;;;;;;;13.00;8.30;;;14.20;99.90;;;;;;4963253;29;20364;-76
2022/11/01 02:54:38;;;;;;;10.23;6.38;;;14.30;99.90;;;;;;4962281;28;20113;-77
2022/11/01 02:57:32;;;;;;;11.98;6.93;;;14.40;99.90;;;;;;4963748;29;20038;-77
2022/11/01 03:00:02;;;;;;;11.77;6.80;;;14.40;99.90;;;;;;4957556;28;20066;-79
2022/11/01 03:02:41;;;;;;;10.63;6.22;;;14.40;99.90;;;;;;4949310;28;20030;-80
2022/11/01 03:05:35;;;;;;;14.05;7.65;;;14.40;99.90;;;;;;4969178;28;20305;-80
2022/11/01 03:08:06;;;;;;;8.90;6.35;;;14.40;99.90;;;;;;4981104;28;20035;-77
2022/11/01 03:10:51;;;;;;;13.60;7.32;;;14.40;99.90;;;;;;4962535;28;20050;-78
2022/11/01 03:13:31;;;;;;;11.43;6.18;;;14.40;99.90;;;;;;4970071;28;20065;-77
2022/11/01 03:16:12;;;;;;;9.40;6.72;;;14.40;99.90;;;;;;4981207;28;20057;-77
2022/11/01 03:18:50;;;;;;;8.18;5.72;;;14.40;99.90;;;;;;4962158;28;20209;-78
2022/11/01 03:21:22;;;;;;;11.35;6.57;;;14.40;99.90;;;;;;4946330;29;20054;-79
2022/11/01 03:24:02;;;;;;;10.60;6.30;;;14.40;99.90;;;;;;4962915;28;20094;-75
2022/11/01 03:26:32;;;;;;;10.27;7.03;;;14.40;99.90;;;;;;4946160;29;20119;-77
2022/11/01 03:29:03;;;;;;;9.38;5.80;;;14.50;99.90;;;;;;4980283;28;20058;-78
2022/11/01 03:32:11;;;;;;;10.35;6.38;;;14.40;99.90;;;;;;4966403;28;20107;-80
2022/11/01 03:34:40;;;;;;;11.07;5.80;;;14.40;99.90;;;;;;4959984;28;20102;-78
2022/11/01 03:37:10;;;;;;;10.02;6.25;;;14.40;99.90;;;;;;4946511;29;20316;-80
2022/11/01 03:39:42;;;;;;;12.43;6.28;;;14.50;99.90;;;;;;4962217;28;20106;-78
2022/11/01 03:42:15;;;;;;;14.27;5.85;;;14.50;99.90;;;;;;4973809;28;20035;-76
2022/11/01 03:44:44;;;;;;;9.13;7.15;;;14.50;99.90;;;;;;4953439;29;20050;-77
2022/11/01 03:47:11;;;;;;;13.25;6.97;;;14.50;99.90;;;;;;4944767;28;20062;-77
2022/11/01 03:49:36;;;;;;;9.88;5.53;;;14.40;99.90;;;;;;4961352;29;20322;-75
2022/11/01 03:52:02;;;;;;;11.88;6.82;;;14.50;99.90;;;;;;4968795;28;20097;-76
2022/11/01 03:54:28;;;;;;;12.38;6.65;;;14.50;99.90;;;;;;4964677;28;20118;-76
2022/11/01 03:56:54;;;;;;;12.32;6.40;;;14.50;99.90;;;;;;4949696;28;20030;-78
2022/11/01 03:59:20;;;;;;;7.82;5.60;;;14.60;99.90;;;;;;4974352;28;20065;-77
2022/11/01 04:01:48;;;;;;;13.07;5.88;;;14.50;99.90;;;;;;4972489;28;20070;-78
2022/11/01 04:04:16;;;;;;;9.10;6.35;;;14.60;99.90;;;;;;4945735;29;20294;-79
2022/11/01 04:06:42;;;;;;;11.00;6.43;;;14.50;99.90;;;;;;4963066;28;20046;-77
2022/11/01 04:09:08;;;;;;;9.30;6.13;;;14.50;99.90;;;;;;4951362;28;20046;-78
2022/11/01 04:11:33;;;;;;;10.93;5.82;;;14.60;99.90;;;;;;4971659;28;20039;-76
2022/11/01 04:22:12;;;;;;;9.45;6.18;;;14.60;99.90;;;;;;4963733;28;20038;-76
2022/11/01 04:24:37;;;;;;;7.10;4.45;;;14.50;99.90;;;;;;4930344;28;20043;-80
2022/11/01 04:27:06;;;;;;;8.38;5.72;;;14.50;99.90;;;;;;4982068;28;20035;-77
2022/11/01 04:29:31;;;;;;;8.45;5.25;;;14.50;99.90;;;;;;4954127;28;20220;-77
2022/11/01 04:32:01;;;;;;;9.05;5.63;;;14.50;99.90;;;;;;4943995;28;20047;-80
2022/11/01 04:34:41;;;;;;;10.32;5.95;;;14.40;99.90;;;;;;4945366;29;20206;-76
2022/11/01 04:37:07;;;;;;;8.25;5.22;;;14.40;99.90;;;;;;4976221;28;20065;-79
2022/11/01 04:39:33;;;;;;;12.77;6.65;;;14.50;99.90;;;;;;4963333;28;20318;-77
2022/11/01 04:41:59;;;;;;;7.60;4.55;;;14.50;99.90;;;;;;4966782;28;20038;-77
2022/11/01 04:44:24;;;;;;;14.15;5.90;;;14.50;99.90;;;;;;4979896;28;20070;-77
2022/11/01 04:46:50;;;;;;;8.45;5.50;;;14.50;99.90;;;;;;4958114;28;20038;-78
2022/11/01 04:49:16;;;;;;;7.50;4.57;;;14.60;99.90;;;;;;4961259;28;20225;-79
2022/11/01 04:51:41;;;;;;;12.00;5.63;;;14.60;99.90;;;;;;4970996;28;20313;-77
2022/11/01 04:54:07;;;;;;;10.18;5.82;;;14.70;99.90;;;;;;4973496;28;20264;-79
2022/11/01 04:56:33;;;;;;;9.63;5.45;;;14.70;99.90;;;;;;4947768;28;20073;-74
2022/11/01 04:58:58;;;;;;;7.57;5.22;;;14.70;99.90;;;;;;4948769;28;20090;-78
2022/11/01 05:01:24;;;;;;;10.70;5.30;;;14.80;99.90;;;;;;4945619;29;20035;-75
2022/11/01 05:03:50;;;;;;;8.32;4.70;;;14.90;99.90;;;;;;4946706;28;20028;-77
2022/11/01 05:06:16;;;;;;;10.70;5.28;;;14.90;99.90;;;;;;4936558;28;20042;-78
2022/11/01 05:08:41;;;;;;;8.57;5.10;;;15.00;99.90;;;;;;4955884;28;20034;-78
2022/11/01 05:11:07;;;;;;;7.60;3.65;;;15.00;99.90;;;;;;4948933;29;20097;-77
2022/11/01 05:13:33;;;;;;;12.48;4.90;;;15.00;99.90;;;;;;4944874;29;20046;-77
2022/11/01 05:16:02;;;;;;;8.60;4.65;;;15.10;99.90;;;;;;4947396;28;20329;-77
2022/11/01 05:18:28;;;;;;;15.02;5.75;;;14.90;99.90;;;;;;4960263;28;20082;-78
2022/11/01 05:20:55;;;;;;;10.10;4.68;;;15.10;99.90;;;;;;4929987;28;20050;-75
2022/11/01 05:23:20;;;;;;;6.47;4.43;;;15.10;99.90;;;;;;4968911;28;20353;-77
2022/11/01 05:25:46;;;;;;;10.00;4.57;;;15.00;99.90;;;;;;4967228;28;20034;-77
2022/11/01 05:28:13;;;;;;;8.95;4.72;;;15.00;99.90;;;;;;4948704;28;20038;-78
2022/11/01 05:30:39;;;;;;;7.55;4.75;;;15.00;99.90;;;;;;4949788;28;20030;-79
2022/11/01 05:33:06;;;;;;;11.93;5.53;;;15.00;99.90;;;;;;4956873;28;20041;-77
2022/11/01 05:35:33;;;;;;;8.50;4.80;;;15.20;99.90;;;;;;4982705;28;20035;-79
2022/11/01 05:38:00;;;;;;;10.48;4.93;;;15.10;99.90;;;;;;4946524;28;20031;-78
2022/11/01 05:40:26;;;;;;;6.80;4.65;;;15.20;99.90;;;;;;4940969;29;20039;-77
2022/11/01 05:42:53;;;;;;;9.25;4.88;;;15.30;99.90;;;;;;4962460;28;20047;-76
2022/11/01 05:45:18;;;;;;;7.25;4.75;;;15.30;99.90;;;;;;4944429;28;20031;-79
2022/11/01 05:48:10;;;;;;;7.15;4.80;;;15.30;99.90;;;;;;4961085;28;20037;-78
2022/11/01 05:50:36;;;;;;;9.05;4.32;;;15.40;99.90;;;;;;4955419;28;20042;-75
2022/11/01 05:53:09;;;;;;;9.23;4.18;;;15.60;99.90;;;;;;4947835;28;20035;-73
2022/11/01 05:55:35;;;;;;;11.65;3.30;;;15.60;99.90;;;;;;4965935;28;20039;-77
2022/11/01 05:58:01;;;;;;;6.95;3.08;;;15.60;99.90;;;;;;4950656;28;20039;-77
2022/11/01 06:00:26;;;;;;;6.00;3.17;;;15.60;99.90;;;;;;4970815;28;20308;-74
2022/11/01 06:02:52;;;;;;;7.18;3.53;;;15.60;99.90;;;;;;4967614;28;20043;-79
2022/11/01 06:05:18;;;;;;;7.20;2.88;;;15.50;99.90;;;;;;4953011;28;20030;-79
2022/11/01 06:07:43;;;;;;;3.10;2.30;;;15.40;99.90;;;;;;4960054;28;20084;-76
2022/11/01 06:10:09;;;;;;;4.53;1.80;;;15.30;99.90;;;;;;4960126;28;20274;-76
2022/11/01 06:12:35;;;;;;;10.18;1.88;;;15.30;99.90;;;;;;4975252;28;20027;-77
2022/11/01 06:15:00;;;;;;;4.75;1.50;;;15.10;99.90;;;;;;4952099;28;20031;-80
2022/11/01 06:17:26;;;;;;;5.78;1.73;;;15.20;99.90;;;;;;4957624;28;20030;-76
2022/11/01 06:19:52;;;;;;;4.43;1.20;;;15.20;99.90;;;;;;4950943;28;20225;-75
2022/11/01 06:22:17;;;;;;;3.28;1.20;;;15.00;99.90;;;;;;4957215;29;20047;-77
2022/11/01 06:24:43;;;;;;;3.70;1.02;;;14.90;99.90;;;;;;4931881;28;20388;-77
2022/11/01 06:27:09;;;;;;;2.58;1.20;;;14.80;99.90;;;;;;4962008;28;20043;-76
2022/11/01 06:29:34;;;;;;;9.02;1.33;;;14.70;99.90;;;;;;4965986;28;20041;-79
2022/11/01 06:32:02;;;;;;;5.05;1.20;;;14.60;99.90;;;;;;4965466;28;20070;-76
2022/11/01 06:34:28;;;;;;;4.45;1.60;;;14.60;99.90;;;;;;4965280;28;20030;-76
2022/11/01 06:36:54;;;;;;;3.47;1.27;;;14.60;99.90;;;;;;4983155;28;20042;-75
2022/11/01 06:39:20;;;;;;;6.57;1.60;;;14.60;99.90;;;;;;4966572;28;20045;-75
2022/11/01 06:41:45;;;;;;;2.45;1.10;;;14.50;99.90;;;;;;4974691;28;20039;-76
2022/11/01 06:44:11;;;;;;;3.78;1.30;;;14.40;99.90;;;;;;4968722;28;20117;-75
2022/11/01 06:46:37;;;;;;;2.72;1.10;;;14.40;99.90;;;;;;4968364;28;20132;-76
2022/11/01 06:49:02;;;;;;;4.28;1.20;;;14.40;99.90;;;;;;4950576;28;20313;-76
2022/11/01 06:51:28;;;;;;;2.05;1.08;;;14.30;99.90;;;;;;4963590;28;20050;-78
2022/11/01 06:53:54;;;;;;;3.50;1.08;;;14.30;99.90;;;;;;4965994;28;20039;-77
2022/11/01 06:56:20;;;;;;;2.25;0.98;;;14.30;99.90;;;;;;4939028;29;20027;-74
2022/11/01 06:58:50;;;;;;;2.30;1.00;;;14.20;99.90;;;;;;4963551;28;20042;-78
2022/11/01 07:01:17;;;;;;;6.25;1.13;;;14.10;99.90;;;;;;4965368;28;20056;-76
2022/11/01 07:03:44;;;;;;;4.38;1.30;;;14.10;99.90;;;;;;4949703;28;20043;-76
2022/11/01 07:06:10;;;;;;;5.18;1.45;;;14.00;99.90;;;;;;4966105;28;20073;-77
2022/11/01 07:08:36;;;;;;;6.13;1.15;;;14.10;99.90;;;;;;4966079;28;20233;-78
2022/11/01 07:11:02;;;;;;;4.38;1.10;;;14.10;99.90;;;;;;4945764;29;20086;-76
2022/11/01 07:13:32;;;;;;;6.32;1.48;;;14.00;99.90;;;;;;4962076;28;20082;-77
2022/11/01 07:16:00;;;;;;;7.13;1.38;;;13.90;99.90;;;;;;4948821;28;20035;-77
2022/11/01 07:18:28;;;;;;;3.83;1.27;;;13.90;99.90;;;;;;4965993;28;20503;-77
2022/11/01 07:20:54;;;;;;;6.43;1.65;;;13.90;99.90;;;;;;4946774;29;20045;-76
2022/11/01 07:23:20;;;;;;;6.82;1.55;;;13.80;99.90;;;;;;4956830;28;20095;-76
2022/11/01 07:25:50;;;;;;;5.25;1.20;;;13.80;99.90;;;;;;4963505;28;20042;-77
2022/11/01 07:28:19;;;;;;;8.18;1.35;;;13.80;99.90;;;;;;4962410;28;20046;-75
2022/11/01 07:30:52;;;;;;;3.13;1.05;;;13.80;99.90;;;;;;4965908;28;20042;-76
2022/11/01 07:33:19;;;;;;;5.50;1.40;;;13.70;99.90;;;;;;4949764;28;20034;-77
2022/11/01 07:35:45;;;;;;;7.53;1.77;;;13.80;99.90;;;;;;4965535;28;20085;-75
2022/11/01 07:38:11;;;;;;;7.05;1.83;;;13.90;99.90;;;;;;4975121;28;20035;-78
2022/11/01 07:40:37;;;;;;;8.70;1.60;;;14.00;99.90;;;;;;4951319;29;20233;-79
2022/11/01 07:43:04;;;;;;;6.80;1.48;;;14.00;99.90;;;;;;4959660;28;20197;-79
2022/11/01 07:45:32;;;;;;;7.85;2.42;;;14.10;99.90;;;;;;4953061;28;20038;-79
2022/11/01 07:48:01;;;;;;;8.05;1.27;;;14.20;99.90;;;;;;4972824;28;20042;-78
2022/11/01 07:50:30;;;;;;;7.15;1.20;;;14.20;99.90;;;;;;4961845;28;20225;-77
2022/11/01 07:53:17;;;;;;;5.78;1.38;;;14.40;99.90;;;;;;4954734;28;20167;-75
2022/11/01 07:55:44;;;;;;;6.18;1.80;;;14.40;99.90;;;;;;4957811;28;20050;-78
2022/11/01 07:58:11;;;;;;;9.68;1.98;;;14.30;99.90;;;;;;4969209;28;20054;-77
2022/11/01 08:00:37;;;;;;;11.05;1.85;;;14.20;99.90;;;;;;4957469;28;20037;-77
2022/11/01 08:03:05;;;;;;;5.15;1.30;;;14.20;99.90;;;;;;4971014;28;20038;-78
2022/11/01 08:05:31;;;;;;;6.57;1.65;;;14.20;99.90;;;;;;4945986;28;20027;-76
2022/11/01 08:07:57;;;;;;;4.55;1.85;;;14.30;99.90;;;;;;4970935;28;20130;-78
2022/11/01 08:10:23;;;;;;;5.53;1.20;;;14.40;99.90;;;;;;4972989;28;20117;-76
2022/11/01 08:12:48;;;;;;;9.27;2.10;;;14.40;99.90;;;;;;4966381;28;20226;-77
2022/11/01 08:15:14;;;;;;;8.30;1.63;;;14.40;99.90;;;;;;4932010;28;20033;-76
2022/11/01 08:17:40;;;;;;;8.00;1.63;;;14.40;99.90;;;;;;4965686;28;20036;-77
2022/11/01 08:20:06;;;;;;;9.00;1.70;;;14.40;99.90;;;;;;4947943;28;20057;-76
2022/11/01 08:22:32;;;;;;;9.77;1.50;;;14.50;99.90;;;;;;4947475;28;20101;-76
2022/11/01 08:24:58;;;;;;;3.90;0.93;;;14.70;99.90;;;;;;4945616;28;20065;-75
2022/11/01 08:27:24;;;;;;;11.32;2.10;;;14.80;99.90;;;;;;4974547;28;20150;-76
2022/11/01 08:29:50;;;;;;;8.32;2.45;;;14.90;99.90;;;;;;4953828;28;20062;-76
2022/11/01 08:32:20;;;;;;;14.30;2.25;;;14.90;99.90;;;;;;4913247;28;20061;-75
2022/11/01 08:34:46;;;;;;;12.45;2.03;;;14.80;99.90;;;;;;4962221;28;20098;-77
2022/11/01 08:37:12;;;;;;;9.07;1.92;;;14.70;99.90;;;;;;4949975;29;20455;-74
2022/11/01 08:39:38;;;;;;;7.57;1.88;;;14.70;99.90;;;;;;4945477;28;20038;-76
2022/11/01 08:42:04;;;;;;;10.15;1.75;;;14.70;99.90;;;;;;4976641;28;20047;-79
2022/11/01 08:44:33;;;;;;;6.20;1.70;;;14.70;99.90;;;;;;4961299;29;20337;-76
2022/11/01 08:47:00;;;;;;;15.02;3.40;;;14.60;99.90;;;;;;4948523;28;20109;-76
2022/11/01 08:49:27;;;;;;;9.98;2.10;;;14.50;99.90;;;;;;4960819;28;20043;-79
2022/11/01 08:51:53;;;;;;;11.82;2.35;;;14.50;99.90;;;;;;4963509;28;20047;-76
2022/11/01 08:54:21;;;;;;;11.18;1.63;;;14.40;99.90;;;;;;4944795;29;20082;-78
2022/11/01 08:56:47;;;;;;;12.60;2.20;;;14.40;99.90;;;;;;4962732;28;20106;-74
2022/11/01 08:59:12;;;;;;;13.93;2.60;;;14.30;99.90;;;;;;4946071;29;20027;-76
2022/11/01 09:01:38;;;;;;;9.15;1.88;;;14.30;99.90;;;;;;4961115;28;20035;-75
2022/11/01 09:04:05;;;;;;;12.90;2.30;;;14.30;99.90;;;;;;4968812;28;20035;-79
2022/11/01 09:06:31;;;;;;;13.27;2.50;;;14.30;99.90;;;;;;4942446;29;20074;-76
2022/11/01 09:09:03;;;;;;;15.52;2.50;;;14.50;99.90;;;;;;4968701;28;20069;-76
2022/11/01 09:11:29;;;;;;;12.60;2.40;;;14.50;99.90;;;;;;4931792;29;20039;-77
2022/11/01 09:13:56;;;;;;;11.93;2.17;;;14.50;99.90;;;;;;4977991;28;20035;-76
2022/11/01 09:16:23;;;;;;;16.38;3.38;;;14.60;99.90;;;;;;4945168;29;20062;-79
2022/11/01 09:18:48;;;;;;;12.20;2.53;;;14.70;99.90;;;;;;4968125;28;20197;-76
2022/11/01 09:21:15;;;;;;;14.27;2.53;;;15.00;99.90;;;;;;4980252;28;20042;-77
2022/11/01 09:23:41;;;;;;;9.05;2.30;;;15.10;99.90;;;;;;4962961;28;20059;-77
2022/11/01 09:26:09;;;;;;;17.65;2.80;;;15.10;99.90;;;;;;4942951;29;20074;-77
2022/11/01 09:28:35;;;;;;;14.13;3.30;;;15.30;99.90;;;;;;4944192;29;20107;-76
2022/11/01 09:31:11;;;;;;;13.25;3.05;;;15.30;99.90;;;;;;4963166;28;20051;-77
2022/11/01 09:33:37;;;;;;;16.73;3.28;;;15.60;99.90;;;;;;4980369;28;20073;-77
2022/11/01 09:36:03;;;;;;;12.93;2.47;;;15.60;99.90;;;;;;4951099;28;20102;-77
2022/11/01 09:38:28;;;;;;;12.48;2.35;;;15.70;99.90;;;;;;4948819;29;20043;-77
2022/11/01 09:41:03;;;;;;;14.20;2.63;;;15.40;99.90;;;;;;4965928;28;20090;-75
2022/11/01 09:43:33;;;;;;;11.32;2.50;;;15.50;99.90;;;;;;4965195;29;20102;-78
2022/11/01 09:46:03;;;;;;;15.80;3.00;;;15.50;99.90;;;;;;4967198;28;20049;-78
2022/11/01 09:48:31;;;;;;;16.25;2.70;;;15.40;99.90;;;;;;4964729;29;20039;-79
2022/11/01 09:51:01;;;;;;;14.32;2.72;;;15.50;99.90;;;;;;4966049;28;20042;-78
2022/11/01 09:53:28;;;;;;;10.38;2.00;;;15.40;99.90;;;;;;4944955;29;20046;-78
2022/11/01 09:56:04;;;;;;;9.85;2.00;;;15.50;99.90;;;;;;4931380;28;20046;-76
2022/11/01 09:58:43;;;;;;;11.25;2.38;;;15.60;99.90;;;;;;4956905;29;20035;-77
2022/11/01 10:01:18;;;;;;;9.73;2.42;;;15.70;99.90;;;;;;4980047;28;20094;-77
2022/11/01 10:04:19;;;;;;;11.40;3.00;;;15.80;99.90;;;;;;4965396;28;20408;-78
2022/11/01 10:07:16;;;;;;;12.75;2.55;;;15.70;99.90;;;;;;4979881;28;20077;-77
2022/11/01 10:10:16;;;;;;;11.70;2.08;;;15.90;99.90;;;;;;4951470;28;20082;-78
2022/11/01 10:13:09;;;;;;;11.90;2.05;;;15.90;99.90;;;;;;4947891;28;20074;-79
2022/11/01 10:15:54;;;;;;;12.93;2.75;;;16.10;99.90;;;;;;4947681;29;20066;-79
2022/11/01 10:18:27;;;;;;;12.50;2.40;;;16.30;99.90;;;;;;4979161;28;20043;-78
2022/11/01 10:20:56;;;;;;;16.48;3.45;;;16.10;99.90;;;;;;4949347;28;20070;-78
2022/11/01 10:23:34;;;;;;;8.98;1.95;;;15.80;99.90;;;;;;4962835;29;20059;-78
2022/11/01 10:26:00;;;;;;;9.38;2.88;;;15.80;99.90;;;;;;4963373;29;20163;-79
2022/11/01 10:28:43;;;;;;;18.25;2.92;;;15.80;99.90;;;;;;4959044;29;20039;-77
2022/11/01 10:31:22;;;;;;;17.48;3.20;;;15.80;99.90;;;;;;4962650;28;20043;-78
2022/11/01 10:33:52;;;;;;;11.52;2.60;;;15.40;99.90;;;;;;4979100;28;20031;-77
2022/11/01 10:36:27;;;;;;;12.23;2.67;;;15.40;99.90;;;;;;4942001;29;20027;-77
2022/11/01 10:39:14;;;;;;;13.93;3.70;;;15.60;99.90;;;;;;4963168;29;20043;-77
2022/11/01 10:41:49;;;;;;;11.95;2.50;;;15.50;99.90;;;;;;4945032;29;20043;-79
2022/11/01 10:44:34;;;;;;;13.48;2.40;;;15.60;99.90;;;;;;4957650;29;20053;-78
2022/11/01 10:47:05;;;;;;;18.92;3.13;;;15.40;99.90;;;;;;4946668;29;20039;-78
2022/11/01 10:49:44;;;;;;;16.38;3.10;;;15.30;99.90;;;;;;4959003;29;20074;-75
2022/11/01 10:52:15;;;;;;;9.77;2.90;;;15.30;99.90;;;;;;4962423;29;20268;-76
2022/11/01 10:54:44;;;;;;;12.65;2.65;;;15.30;99.90;;;;;;4963346;28;20070;-77
2022/11/01 10:57:18;;;;;;;16.05;2.80;;;15.30;99.90;;;;;;4955665;28;20117;-76
2022/11/01 10:59:46;;;;;;;14.35;2.72;;;15.20;99.90;;;;;;4945134;29;20522;-79
2022/11/01 11:02:23;;;;;;;15.40;3.42;;;15.20;99.90;;;;;;4956669;28;20039;-78
2022/11/01 11:04:50;;;;;;;11.27;2.42;;;15.20;99.90;;;;;;4962873;29;20105;-76
2022/11/01 11:07:17;;;;;;;14.88;2.83;;;15.10;99.90;;;;;;4940942;29;20047;-78
2022/11/01 11:09:43;;;;;;;12.25;2.67;;;15.20;99.90;;;;;;4963502;29;20042;-76
2022/11/01 11:12:22;;;;;;;15.68;2.53;;;15.10;99.90;;;;;;4955646;29;20035;-77
2022/11/01 11:14:53;;;;;;;12.48;2.60;;;15.10;99.90;;;;;;4962775;29;20031;-76
2022/11/01 11:17:27;;;;;;;12.85;2.47;;;15.00;99.90;;;;;;4957574;28;20035;-76
2022/11/01 11:19:54;;;;;;;;;;;15.00;99.90;;;;;;4962674;28;20181;-77
2022/11/01 11:22:21;;;;;;;11.55;2.45;;;15.00;99.90;;;;;;4962115;28;19922;-77
2022/11/01 11:24:49;;;;;;;12.43;2.92;;;15.00;99.90;;;;;;4949176;28;20430;-75
2022/11/01 11:27:33;;;;;;;9.13;2.40;;;15.00;99.90;;;;;;4962579;29;20051;-75
2022/11/01 11:30:04;;;;;;;12.18;2.60;;;15.00;99.90;;;;;;4949606;28;20045;-76
2022/11/01 11:32:38;;;;;;;17.02;2.55;;;15.10;99.90;;;;;;4965628;28;20199;-76
2022/11/01 11:35:17;;;;;;;12.20;2.58;;;15.10;99.90;;;;;;4945804;29;20030;-77
2022/11/01 11:37:56;;;;;;;9.30;2.60;;;15.00;99.90;;;;;;4961565;28;20027;-76
2022/11/01 11:40:38;;;;;;;11.55;2.40;;;15.10;99.90;;;;;;4958062;28;20050;-76
2022/11/01 11:43:27;;;;;;;12.63;2.55;;;15.10;99.90;;;;;;4940401;28;20329;-78
2022/11/01 11:46:07;;;;;;;9.35;2.40;;;15.00;99.90;;;;;;4965425;28;20114;-80
2022/11/01 11:48:44;;;;;;;14.02;2.42;;;15.10;99.90;;;;;;4959922;28;20039;-78
2022/11/01 11:51:10;;;;;;;11.82;2.83;;;15.20;99.90;;;;;;4936890;29;20039;-76
2022/11/01 11:53:36;;;;;;;11.05;2.83;;;15.20;99.90;;;;;;4957918;29;20027;-77
2022/11/01 11:56:08;;;;;;;10.00;2.45;;;15.10;99.90;;;;;;4950539;28;20058;-79
2022/11/01 11:58:43;;;;;;;11.10;2.03;;;15.20;99.90;;;;;;4945361;29;20050;-79
2022/11/01 12:01:22;;;;;;;16.80;3.05;;;15.20;99.90;;;;;;4960924;28;20047;-80
2022/11/01 12:04:03;;;;;;;11.38;3.65;;;15.20;99.90;;;;;;4947036;28;20035;-77
2022/11/01 12:06:30;;;;;;;12.40;2.67;;;15.20;99.90;;;;;;4962152;29;20085;-80
2022/11/01 12:08:58;;;;;;;10.95;2.45;;;15.20;99.90;;;;;;4921873;29;20253;-79
2022/11/01 12:11:36;;;;;;;8.05;2.22;;;15.20;99.90;;;;;;4927976;28;20053;-77
2022/11/01 12:14:32;;;;;;;11.60;2.13;;;15.20;99.90;;;;;;4931443;28;20058;-79
2022/11/01 12:17:00;;;;;;;13.60;2.55;;;14.10;99.90;;;;;;4964262;28;20042;-80
2022/11/01 12:19:28;;;;;;;13.18;2.55;;;15.50;99.90;;;;;;4964232;28;20039;-79
2022/11/01 12:22:00;;;;;;;10.27;2.00;;;15.20;99.90;;;;;;4963179;28;20122;-78
2022/11/01 12:24:47;;;;;;;13.95;2.40;;;15.40;99.90;;;;;;4961018;29;20130;-78
2022/11/01 12:27:23;;;;;;;14.02;2.70;;;15.40;99.90;;;;;;4961201;28;20120;-80
2022/11/01 12:30:07;;;;;;;12.68;2.53;;;15.40;99.90;;;;;;4960127;29;20035;-77
2022/11/01 12:32:47;;;;;;;10.68;3.17;;;15.40;99.90;;;;;;4975152;28;20286;-80
2022/11/01 12:35:32;;;;;;;9.63;2.05;;;15.40;99.90;;;;;;4966765;28;20039;-79
2022/11/01 12:38:10;;;;;;;;;;;15.50;99.90;;;;;;4965338;28;20141;-77
2022/11/01 12:40:37;;;;;;;8.98;2.03;;;15.50;99.90;;;;;;4977695;28;19955;-79
2022/11/01 12:43:43;;;;;;;9.75;1.98;;;15.40;99.90;;;;;;4964233;28;20034;-82
2022/11/01 12:46:54;;;;;;;8.10;1.85;;;15.50;99.90;;;;;;4948908;28;20069;-77
2022/11/01 12:49:36;;;;;;;10.35;2.03;;;15.50;99.90;;;;;;4974316;28;20043;-78
2022/11/01 12:52:51;;;;;;;;;;;;;;;;;;;;;
2022/11/01 12:55:39;;;;;;;8.05;2.20;;;15.70;99.90;;;;;;4961505;28;20042;-79
2022/11/01 12:58:13;;;;;;;9.35;2.47;;;15.70;99.90;;;;;;4964709;28;20034;-79
2022/11/01 13:00:56;;;;;;;8.55;1.67;;;15.70;99.90;;;;;;4948057;28;20038;-77
2022/11/01 13:03:44;;;;;;;7.00;1.67;;;15.70;99.90;;;;;;4945285;29;20039;-77
2022/11/01 13:06:28;;;;;;;8.93;1.80;;;15.70;99.90;;;;;;4961560;29;20157;-79
2022/11/01 13:08:57;;;;;;;13.23;2.45;;;15.60;99.90;;;;;;4947339;28;20043;-78
2022/11/01 13:11:52;;;;;;;8.73;1.45;;;15.70;99.90;;;;;;4961457;29;20043;-76
2022/11/01 13:14:26;;;;;;;9.95;2.03;;;15.60;99.90;;;;;;4977033;28;20043;-77